sensor_id;sensor_type;location;lat;lon;timestamp;temperature;humidity
7562;DHT22;3822;48.784;9.174;2022-08-19T00:01:55;24.10;76.40
7562;DHT22;3822;48.784;9.174;2022-08-19T00:04:27;24.00;75.80
7562;DHT22;3822;48.784;9.174;2022-08-19T00:07:03;24.00;75.90
7562;DHT22;3822;48.784;9.174;2022-08-19T00:09:31;24.00;76.00
7562;DHT22;3822;48.784;9.174;2022-08-19T00:11:59;24.00;76.10
7562;DHT22;3822;48.784;9.174;2022-08-19T00:14:27;24.00;76.20
7562;DHT22;3822;48.784;9.174;2022-08-19T00:16:57;24.00;76.40
7562;DHT22;3822;48.784;9.174;2022-08-19T00:19:24;24.00;76.50
7562;DHT22;3822;48.784;9.174;2022-08-19T00:21:51;23.90;76.50
7562;DHT22;3822;48.784;9.174;2022-08-19T00:24:18;23.90;76.50
7562;DHT22;3822;48.784;9.174;2022-08-19T00:26:45;23.90;76.60
7562;DHT22;3822;48.784;9.174;2022-08-19T00:29:13;23.90;76.80
7562;DHT22;3822;48.784;9.174;2022-08-19T00:31:42;23.90;76.90
7562;DHT22;3822;48.784;9.174;2022-08-19T00:34:10;23.90;77.00
7562;DHT22;3822;48.784;9.174;2022-08-19T00:36:38;23.80;77.00
7562;DHT22;3822;48.784;9.174;2022-08-19T00:39:05;23.90;77.20
7562;DHT22;3822;48.784;9.174;2022-08-19T00:41:35;23.80;77.20
7562;DHT22;3822;48.784;9.174;2022-08-19T00:46:38;23.80;77.50
7562;DHT22;3822;48.784;9.174;2022-08-19T00:49:36;23.70;77.50
7562;DHT22;3822;48.784;9.174;2022-08-19T00:52:12;23.80;77.60
7562;DHT22;3822;48.784;9.174;2022-08-19T00:54:41;23.70;77.70
7562;DHT22;3822;48.784;9.174;2022-08-19T00:57:15;23.70;77.80
7562;DHT22;3822;48.784;9.174;2022-08-19T00:59:52;23.60;77.90
7562;DHT22;3822;48.784;9.174;2022-08-19T01:02:20;23.60;77.90
7562;DHT22;3822;48.784;9.174;2022-08-19T01:04:47;23.60;78.00
7562;DHT22;3822;48.784;9.174;2022-08-19T01:07:14;23.70;78.20
7562;DHT22;3822;48.784;9.174;2022-08-19T01:09:40;23.70;78.20
7562;DHT22;3822;48.784;9.174;2022-08-19T01:12:07;23.70;78.30
7562;DHT22;3822;48.784;9.174;2022-08-19T01:14:36;23.60;78.30
7562;DHT22;3822;48.784;9.174;2022-08-19T01:17:09;23.60;78.40
7562;DHT22;3822;48.784;9.174;2022-08-19T01:19:40;23.60;78.50
7562;DHT22;3822;48.784;9.174;2022-08-19T01:24:50;23.60;78.60
7562;DHT22;3822;48.784;9.174;2022-08-19T01:27:18;23.60;78.70
7562;DHT22;3822;48.784;9.174;2022-08-19T01:29:45;23.60;78.80
7562;DHT22;3822;48.784;9.174;2022-08-19T01:32:14;23.60;78.90
7562;DHT22;3822;48.784;9.174;2022-08-19T01:34:42;23.60;78.90
7562;DHT22;3822;48.784;9.174;2022-08-19T01:37:14;23.60;79.00
7562;DHT22;3822;48.784;9.174;2022-08-19T01:39:42;23.60;79.10
7562;DHT22;3822;48.784;9.174;2022-08-19T01:42:09;23.60;79.20
7562;DHT22;3822;48.784;9.174;2022-08-19T01:44:39;23.50;79.10
7562;DHT22;3822;48.784;9.174;2022-08-19T01:47:07;23.50;79.30
7562;DHT22;3822;48.784;9.174;2022-08-19T01:49:35;23.50;79.50
7562;DHT22;3822;48.784;9.174;2022-08-19T01:52:03;23.40;79.60
7562;DHT22;3822;48.784;9.174;2022-08-19T01:54:31;23.40;79.70
7562;DHT22;3822;48.784;9.174;2022-08-19T01:57:06;23.40;79.90
7562;DHT22;3822;48.784;9.174;2022-08-19T01:59:34;23.40;80.00
7562;DHT22;3822;48.784;9.174;2022-08-19T02:02:04;23.40;80.10
7562;DHT22;3822;48.784;9.174;2022-08-19T02:04:34;23.40;80.30
7562;DHT22;3822;48.784;9.174;2022-08-19T02:07:01;23.30;80.30
7562;DHT22;3822;48.784;9.174;2022-08-19T02:09:28;23.40;80.50
7562;DHT22;3822;48.784;9.174;2022-08-19T02:11:54;23.30;80.60
7562;DHT22;3822;48.784;9.174;2022-08-19T02:14:21;23.30;80.70
7562;DHT22;3822;48.784;9.174;2022-08-19T02:16:48;23.20;80.80
7562;DHT22;3822;48.784;9.174;2022-08-19T02:19:14;23.20;81.00
7562;DHT22;3822;48.784;9.174;2022-08-19T02:21:41;23.20;81.80
7562;DHT22;3822;48.784;9.174;2022-08-19T02:24:09;23.10;81.50
7562;DHT22;3822;48.784;9.174;2022-08-19T02:26:36;23.10;81.50
7562;DHT22;3822;48.784;9.174;2022-08-19T02:29:03;23.10;81.60
7562;DHT22;3822;48.784;9.174;2022-08-19T02:31:29;23.10;82.00
7562;DHT22;3822;48.784;9.174;2022-08-19T02:33:56;23.10;82.00
7562;DHT22;3822;48.784;9.174;2022-08-19T02:36:25;23.10;82.00
7562;DHT22;3822;48.784;9.174;2022-08-19T02:38:52;23.10;82.30
7562;DHT22;3822;48.784;9.174;2022-08-19T02:41:30;23.10;82.20
7562;DHT22;3822;48.784;9.174;2022-08-19T02:44:00;23.10;82.30
7562;DHT22;3822;48.784;9.174;2022-08-19T02:46:30;23.10;82.50
7562;DHT22;3822;48.784;9.174;2022-08-19T02:49:01;23.10;82.60
7562;DHT22;3822;48.784;9.174;2022-08-19T02:51:34;23.00;82.80
7562;DHT22;3822;48.784;9.174;2022-08-19T02:54:04;23.00;82.80
7562;DHT22;3822;48.784;9.174;2022-08-19T02:56:33;23.00;82.90
7562;DHT22;3822;48.784;9.174;2022-08-19T02:59:01;23.00;82.90
7562;DHT22;3822;48.784;9.174;2022-08-19T03:01:31;23.00;83.00
7562;DHT22;3822;48.784;9.174;2022-08-19T03:04:00;23.00;83.10
7562;DHT22;3822;48.784;9.174;2022-08-19T03:06:29;23.00;83.20
7562;DHT22;3822;48.784;9.174;2022-08-19T03:08:57;23.00;83.30
7562;DHT22;3822;48.784;9.174;2022-08-19T03:11:30;23.00;83.40
7562;DHT22;3822;48.784;9.174;2022-08-19T03:13:58;23.00;83.70
7562;DHT22;3822;48.784;9.174;2022-08-19T03:16:28;22.90;83.80
7562;DHT22;3822;48.784;9.174;2022-08-19T03:18:57;22.90;83.90
7562;DHT22;3822;48.784;9.174;2022-08-19T03:21:28;22.90;84.30
7562;DHT22;3822;48.784;9.174;2022-08-19T03:23:58;22.90;84.50
7562;DHT22;3822;48.784;9.174;2022-08-19T03:26:29;22.80;84.50
7562;DHT22;3822;48.784;9.174;2022-08-19T03:28:56;22.80;84.80
7562;DHT22;3822;48.784;9.174;2022-08-19T03:31:25;22.80;85.00
7562;DHT22;3822;48.784;9.174;2022-08-19T03:33:52;22.80;85.30
7562;DHT22;3822;48.784;9.174;2022-08-19T03:36:22;22.70;86.10
7562;DHT22;3822;48.784;9.174;2022-08-19T03:38:52;22.70;85.50
7562;DHT22;3822;48.784;9.174;2022-08-19T03:41:26;22.70;85.90
7562;DHT22;3822;48.784;9.174;2022-08-19T03:43:55;22.60;85.90
7562;DHT22;3822;48.784;9.174;2022-08-19T03:46:29;22.60;85.90
7562;DHT22;3822;48.784;9.174;2022-08-19T03:49:00;22.60;86.00
7562;DHT22;3822;48.784;9.174;2022-08-19T03:51:32;22.60;86.20
7562;DHT22;3822;48.784;9.174;2022-08-19T03:54:04;22.50;86.50
7562;DHT22;3822;48.784;9.174;2022-08-19T03:56:35;22.50;86.50
7562;DHT22;3822;48.784;9.174;2022-08-19T03:59:07;22.50;86.50
7562;DHT22;3822;48.784;9.174;2022-08-19T04:01:36;22.50;86.50
7562;DHT22;3822;48.784;9.174;2022-08-19T04:04:03;22.40;86.60
7562;DHT22;3822;48.784;9.174;2022-08-19T04:06:33;22.40;86.60
7562;DHT22;3822;48.784;9.174;2022-08-19T04:09:03;22.40;86.70
7562;DHT22;3822;48.784;9.174;2022-08-19T04:11:35;22.40;86.70
7562;DHT22;3822;48.784;9.174;2022-08-19T04:14:07;22.40;86.70
7562;DHT22;3822;48.784;9.174;2022-08-19T04:16:34;22.40;86.90
7562;DHT22;3822;48.784;9.174;2022-08-19T04:19:03;22.30;86.80
7562;DHT22;3822;48.784;9.174;2022-08-19T04:21:31;22.40;86.90
7562;DHT22;3822;48.784;9.174;2022-08-19T04:23:57;22.30;86.80
7562;DHT22;3822;48.784;9.174;2022-08-19T04:26:28;22.30;86.90
7562;DHT22;3822;48.784;9.174;2022-08-19T04:29:01;22.30;86.90
7562;DHT22;3822;48.784;9.174;2022-08-19T04:31:32;22.30;86.90
7562;DHT22;3822;48.784;9.174;2022-08-19T04:34:04;22.30;87.00
7562;DHT22;3822;48.784;9.174;2022-08-19T04:36:35;22.30;87.10
7562;DHT22;3822;48.784;9.174;2022-08-19T04:39:06;22.30;87.10
7562;DHT22;3822;48.784;9.174;2022-08-19T04:41:43;22.30;87.20
7562;DHT22;3822;48.784;9.174;2022-08-19T04:44:31;22.30;87.20
7562;DHT22;3822;48.784;9.174;2022-08-19T04:46:59;22.30;87.20
7562;DHT22;3822;48.784;9.174;2022-08-19T04:49:26;22.30;87.20
7562;DHT22;3822;48.784;9.174;2022-08-19T04:51:54;22.30;87.30
7562;DHT22;3822;48.784;9.174;2022-08-19T04:54:23;22.20;87.20
7562;DHT22;3822;48.784;9.174;2022-08-19T04:56:52;22.30;87.40
7562;DHT22;3822;48.784;9.174;2022-08-19T04:59:22;22.20;87.30
7562;DHT22;3822;48.784;9.174;2022-08-19T05:01:48;22.20;87.20
7562;DHT22;3822;48.784;9.174;2022-08-19T05:04:18;22.30;87.40
7562;DHT22;3822;48.784;9.174;2022-08-19T05:06:47;22.30;87.70
7562;DHT22;3822;48.784;9.174;2022-08-19T05:09:14;22.30;87.50
7562;DHT22;3822;48.784;9.174;2022-08-19T05:11:42;22.30;87.60
7562;DHT22;3822;48.784;9.174;2022-08-19T05:14:10;22.30;87.70
7562;DHT22;3822;48.784;9.174;2022-08-19T05:16:39;22.30;87.70
7562;DHT22;3822;48.784;9.174;2022-08-19T05:19:05;22.30;87.70
7562;DHT22;3822;48.784;9.174;2022-08-19T05:21:51;22.30;87.70
7562;DHT22;3822;48.784;9.174;2022-08-19T05:24:37;22.30;87.70
7562;DHT22;3822;48.784;9.174;2022-08-19T05:27:04;22.30;87.70
7562;DHT22;3822;48.784;9.174;2022-08-19T05:29:33;22.30;87.80
7562;DHT22;3822;48.784;9.174;2022-08-19T05:32:03;22.40;87.90
7562;DHT22;3822;48.784;9.174;2022-08-19T05:34:31;22.40;88.00
7562;DHT22;3822;48.784;9.174;2022-08-19T05:37:00;22.40;87.90
7562;DHT22;3822;48.784;9.174;2022-08-19T05:39:29;22.40;87.90
7562;DHT22;3822;48.784;9.174;2022-08-19T05:42:01;22.40;87.90
7562;DHT22;3822;48.784;9.174;2022-08-19T05:44:31;22.40;87.90
7562;DHT22;3822;48.784;9.174;2022-08-19T05:47:01;22.40;88.10
7562;DHT22;3822;48.784;9.174;2022-08-19T05:49:31;22.40;88.00
7562;DHT22;3822;48.784;9.174;2022-08-19T05:52:02;22.30;88.00
7562;DHT22;3822;48.784;9.174;2022-08-19T05:54:30;22.40;88.10
7562;DHT22;3822;48.784;9.174;2022-08-19T05:56:57;22.40;88.20
7562;DHT22;3822;48.784;9.174;2022-08-19T05:59:24;22.40;88.10
7562;DHT22;3822;48.784;9.174;2022-08-19T06:01:52;22.40;88.00
7562;DHT22;3822;48.784;9.174;2022-08-19T06:04:21;22.40;87.90
7562;DHT22;3822;48.784;9.174;2022-08-19T06:06:50;22.40;88.60
7562;DHT22;3822;48.784;9.174;2022-08-19T06:09:20;22.40;87.90
7562;DHT22;3822;48.784;9.174;2022-08-19T06:11:54;22.40;88.00
7562;DHT22;3822;48.784;9.174;2022-08-19T06:14:29;22.40;88.10
7562;DHT22;3822;48.784;9.174;2022-08-19T06:16:57;22.40;88.10
7562;DHT22;3822;48.784;9.174;2022-08-19T06:19:26;22.40;88.10
7562;DHT22;3822;48.784;9.174;2022-08-19T06:21:54;22.40;88.10
7562;DHT22;3822;48.784;9.174;2022-08-19T06:24:23;22.40;88.30
7562;DHT22;3822;48.784;9.174;2022-08-19T06:26:52;22.40;88.40
7562;DHT22;3822;48.784;9.174;2022-08-19T06:29:22;22.40;88.40
7562;DHT22;3822;48.784;9.174;2022-08-19T06:31:52;22.40;88.40
7562;DHT22;3822;48.784;9.174;2022-08-19T06:34:20;22.40;88.40
7562;DHT22;3822;48.784;9.174;2022-08-19T06:36:49;22.40;88.50
7562;DHT22;3822;48.784;9.174;2022-08-19T06:39:20;22.40;88.50
7562;DHT22;3822;48.784;9.174;2022-08-19T06:41:51;22.40;88.40
7562;DHT22;3822;48.784;9.174;2022-08-19T06:44:21;22.40;88.50
7562;DHT22;3822;48.784;9.174;2022-08-19T06:46:49;22.40;88.70
7562;DHT22;3822;48.784;9.174;2022-08-19T06:49:17;22.40;88.70
7562;DHT22;3822;48.784;9.174;2022-08-19T06:51:46;22.50;89.00
7562;DHT22;3822;48.784;9.174;2022-08-19T06:54:17;22.40;89.20
7562;DHT22;3822;48.784;9.174;2022-08-19T06:56:44;22.40;89.30
7562;DHT22;3822;48.784;9.174;2022-08-19T06:59:15;22.40;89.40
7562;DHT22;3822;48.784;9.174;2022-08-19T07:01:47;22.40;89.90
7562;DHT22;3822;48.784;9.174;2022-08-19T07:04:23;22.40;90.00
7562;DHT22;3822;48.784;9.174;2022-08-19T07:07:06;22.30;90.00
7562;DHT22;3822;48.784;9.174;2022-08-19T07:09:41;22.40;90.10
7562;DHT22;3822;48.784;9.174;2022-08-19T07:12:11;22.30;90.10
7562;DHT22;3822;48.784;9.174;2022-08-19T07:14:41;22.30;90.20
7562;DHT22;3822;48.784;9.174;2022-08-19T07:17:10;22.30;90.20
7562;DHT22;3822;48.784;9.174;2022-08-19T07:19:38;22.30;90.30
7562;DHT22;3822;48.784;9.174;2022-08-19T07:22:07;22.30;90.40
7562;DHT22;3822;48.784;9.174;2022-08-19T07:24:35;22.30;90.40
7562;DHT22;3822;48.784;9.174;2022-08-19T07:27:04;22.30;90.40
7562;DHT22;3822;48.784;9.174;2022-08-19T07:29:33;22.30;90.40
7562;DHT22;3822;48.784;9.174;2022-08-19T07:32:01;22.30;90.40
7562;DHT22;3822;48.784;9.174;2022-08-19T07:34:30;22.30;90.40
7562;DHT22;3822;48.784;9.174;2022-08-19T07:36:59;22.30;90.40
7562;DHT22;3822;48.784;9.174;2022-08-19T07:39:29;22.30;90.30
7562;DHT22;3822;48.784;9.174;2022-08-19T07:41:59;22.40;90.40
7562;DHT22;3822;48.784;9.174;2022-08-19T07:44:27;22.40;90.30
7562;DHT22;3822;48.784;9.174;2022-08-19T07:46:56;22.40;90.20
7562;DHT22;3822;48.784;9.174;2022-08-19T07:49:23;22.40;90.20
7562;DHT22;3822;48.784;9.174;2022-08-19T07:51:59;22.40;90.20
7562;DHT22;3822;48.784;9.174;2022-08-19T07:54:32;22.30;90.10
7562;DHT22;3822;48.784;9.174;2022-08-19T07:57:00;22.40;90.20
7562;DHT22;3822;48.784;9.174;2022-08-19T07:59:27;22.30;90.10
7562;DHT22;3822;48.784;9.174;2022-08-19T08:01:55;22.30;90.10
7562;DHT22;3822;48.784;9.174;2022-08-19T08:04:22;22.30;90.10
7562;DHT22;3822;48.784;9.174;2022-08-19T08:07:08;22.40;90.10
7562;DHT22;3822;48.784;9.174;2022-08-19T08:09:53;22.30;90.10
7562;DHT22;3822;48.784;9.174;2022-08-19T08:12:23;22.30;90.10
7562;DHT22;3822;48.784;9.174;2022-08-19T08:14:57;22.30;90.10
7562;DHT22;3822;48.784;9.174;2022-08-19T08:17:28;22.40;90.10
7562;DHT22;3822;48.784;9.174;2022-08-19T08:19:56;22.40;90.10
7562;DHT22;3822;48.784;9.174;2022-08-19T08:22:24;22.50;90.10
7562;DHT22;3822;48.784;9.174;2022-08-19T08:25:13;22.50;90.00
7562;DHT22;3822;48.784;9.174;2022-08-19T08:27:43;22.50;90.00
7562;DHT22;3822;48.784;9.174;2022-08-19T08:30:15;22.50;90.00
7562;DHT22;3822;48.784;9.174;2022-08-19T08:32:44;22.40;90.00
7562;DHT22;3822;48.784;9.174;2022-08-19T08:35:14;22.40;90.10
7562;DHT22;3822;48.784;9.174;2022-08-19T08:37:43;22.40;90.10
7562;DHT22;3822;48.784;9.174;2022-08-19T08:40:18;22.40;90.10
7562;DHT22;3822;48.784;9.174;2022-08-19T08:48:46;22.40;90.20
7562;DHT22;3822;48.784;9.174;2022-08-19T08:51:31;22.40;90.30
7562;DHT22;3822;48.784;9.174;2022-08-19T08:54:05;22.40;90.50
7562;DHT22;3822;48.784;9.174;2022-08-19T08:56:33;22.40;90.70
7562;DHT22;3822;48.784;9.174;2022-08-19T09:01:49;22.40;90.70
7562;DHT22;3822;48.784;9.174;2022-08-19T09:04:15;22.50;90.70
7562;DHT22;3822;48.784;9.174;2022-08-19T09:09:45;22.50;90.80
7562;DHT22;3822;48.784;9.174;2022-08-19T09:12:51;22.50;90.80
7562;DHT22;3822;48.784;9.174;2022-08-19T09:15:30;22.60;90.90
7562;DHT22;3822;48.784;9.174;2022-08-19T09:18:02;22.60;90.90
7562;DHT22;3822;48.784;9.174;2022-08-19T09:20:30;22.60;90.90
7562;DHT22;3822;48.784;9.174;2022-08-19T09:22:57;22.60;91.00
7562;DHT22;3822;48.784;9.174;2022-08-19T09:25:25;22.60;90.90
7562;DHT22;3822;48.784;9.174;2022-08-19T09:27:53;22.70;90.90
7562;DHT22;3822;48.784;9.174;2022-08-19T09:30:26;22.70;91.00
7562;DHT22;3822;48.784;9.174;2022-08-19T09:32:55;22.80;91.00
7562;DHT22;3822;48.784;9.174;2022-08-19T09:35:23;22.80;90.90
7562;DHT22;3822;48.784;9.174;2022-08-19T09:37:51;22.80;90.90
7562;DHT22;3822;48.784;9.174;2022-08-19T09:40:18;22.80;90.90
7562;DHT22;3822;48.784;9.174;2022-08-19T09:42:46;22.80;90.80
7562;DHT22;3822;48.784;9.174;2022-08-19T09:45:18;22.90;90.90
7562;DHT22;3822;48.784;9.174;2022-08-19T09:47:48;22.90;90.80
7562;DHT22;3822;48.784;9.174;2022-08-19T09:50:17;22.90;90.80
7562;DHT22;3822;48.784;9.174;2022-08-19T09:52:45;22.90;90.90
7562;DHT22;3822;48.784;9.174;2022-08-19T09:55:12;22.90;91.10
7562;DHT22;3822;48.784;9.174;2022-08-19T09:57:39;23.00;90.80
7562;DHT22;3822;48.784;9.174;2022-08-19T10:00:08;23.00;90.80
7562;DHT22;3822;48.784;9.174;2022-08-19T10:02:35;23.10;90.70
7562;DHT22;3822;48.784;9.174;2022-08-19T10:05:02;23.10;90.60
7562;DHT22;3822;48.784;9.174;2022-08-19T10:07:47;23.10;90.80
7562;DHT22;3822;48.784;9.174;2022-08-19T10:10:13;23.20;90.50
7562;DHT22;3822;48.784;9.174;2022-08-19T10:12:40;23.20;90.40
7562;DHT22;3822;48.784;9.174;2022-08-19T10:15:07;23.20;90.30
7562;DHT22;3822;48.784;9.174;2022-08-19T10:17:34;23.30;90.30
7562;DHT22;3822;48.784;9.174;2022-08-19T10:20:01;23.30;90.20
7562;DHT22;3822;48.784;9.174;2022-08-19T10:22:30;23.30;90.20
7562;DHT22;3822;48.784;9.174;2022-08-19T10:24:57;23.30;90.20
7562;DHT22;3822;48.784;9.174;2022-08-19T10:27:23;23.30;90.10
7562;DHT22;3822;48.784;9.174;2022-08-19T10:29:50;23.30;90.10
7562;DHT22;3822;48.784;9.174;2022-08-19T10:32:16;23.40;90.10
7562;DHT22;3822;48.784;9.174;2022-08-19T10:34:43;23.40;90.10
7562;DHT22;3822;48.784;9.174;2022-08-19T10:37:09;23.40;90.00
7562;DHT22;3822;48.784;9.174;2022-08-19T10:39:36;23.40;90.00
7562;DHT22;3822;48.784;9.174;2022-08-19T10:42:06;23.50;90.00
7562;DHT22;3822;48.784;9.174;2022-08-19T10:44:33;23.50;89.90
7562;DHT22;3822;48.784;9.174;2022-08-19T10:47:02;23.50;89.60
7562;DHT22;3822;48.784;9.174;2022-08-19T10:49:30;23.50;89.60
7562;DHT22;3822;48.784;9.174;2022-08-19T10:51:58;23.50;89.50
7562;DHT22;3822;48.784;9.174;2022-08-19T10:54:42;23.60;89.40
7562;DHT22;3822;48.784;9.174;2022-08-19T10:57:31;23.60;89.20
7562;DHT22;3822;48.784;9.174;2022-08-19T10:59:57;23.70;89.10
7562;DHT22;3822;48.784;9.174;2022-08-19T11:02:24;23.70;88.80
7562;DHT22;3822;48.784;9.174;2022-08-19T11:04:50;23.70;88.50
7562;DHT22;3822;48.784;9.174;2022-08-19T11:07:17;23.70;88.20
7562;DHT22;3822;48.784;9.174;2022-08-19T11:09:44;23.80;88.10
7562;DHT22;3822;48.784;9.174;2022-08-19T11:12:12;23.80;87.90
7562;DHT22;3822;48.784;9.174;2022-08-19T11:14:39;23.80;87.70
7562;DHT22;3822;48.784;9.174;2022-08-19T11:17:06;23.90;87.50
7562;DHT22;3822;48.784;9.174;2022-08-19T11:19:34;23.90;87.20
7562;DHT22;3822;48.784;9.174;2022-08-19T11:22:01;23.90;87.20
7562;DHT22;3822;48.784;9.174;2022-08-19T11:24:29;23.90;87.20
7562;DHT22;3822;48.784;9.174;2022-08-19T11:27:06;23.90;87.10
7562;DHT22;3822;48.784;9.174;2022-08-19T11:29:39;24.00;87.00
7562;DHT22;3822;48.784;9.174;2022-08-19T11:32:09;24.00;86.80
7562;DHT22;3822;48.784;9.174;2022-08-19T11:34:36;24.10;86.60
7562;DHT22;3822;48.784;9.174;2022-08-19T11:37:03;24.20;86.60
7562;DHT22;3822;48.784;9.174;2022-08-19T11:39:33;24.20;86.20
7562;DHT22;3822;48.784;9.174;2022-08-19T11:42:01;24.30;85.90
7562;DHT22;3822;48.784;9.174;2022-08-19T11:44:29;24.30;85.60
7562;DHT22;3822;48.784;9.174;2022-08-19T11:46:56;24.40;85.30
7562;DHT22;3822;48.784;9.174;2022-08-19T11:49:23;24.50;85.10
7562;DHT22;3822;48.784;9.174;2022-08-19T11:51:50;24.50;84.70
7562;DHT22;3822;48.784;9.174;2022-08-19T11:54:17;24.60;84.30
7562;DHT22;3822;48.784;9.174;2022-08-19T11:56:44;24.70;84.20
7562;DHT22;3822;48.784;9.174;2022-08-19T11:59:12;24.70;83.70
7562;DHT22;3822;48.784;9.174;2022-08-19T12:01:38;24.80;83.40
7562;DHT22;3822;48.784;9.174;2022-08-19T12:04:06;24.90;83.40
7562;DHT22;3822;48.784;9.174;2022-08-19T12:06:33;24.90;83.10
7562;DHT22;3822;48.784;9.174;2022-08-19T12:09:04;24.90;83.50
7562;DHT22;3822;48.784;9.174;2022-08-19T12:11:33;25.00;82.50
7562;DHT22;3822;48.784;9.174;2022-08-19T12:14:00;25.00;82.40
7562;DHT22;3822;48.784;9.174;2022-08-19T12:16:28;25.10;82.10
7562;DHT22;3822;48.784;9.174;2022-08-19T12:18:56;25.10;81.70
7562;DHT22;3822;48.784;9.174;2022-08-19T12:21:26;25.10;81.70
7562;DHT22;3822;48.784;9.174;2022-08-19T12:23:58;25.20;81.60
7562;DHT22;3822;48.784;9.174;2022-08-19T12:26:26;25.10;81.20
7562;DHT22;3822;48.784;9.174;2022-08-19T12:28:54;25.20;81.20
7562;DHT22;3822;48.784;9.174;2022-08-19T12:31:21;25.20;81.20
7562;DHT22;3822;48.784;9.174;2022-08-19T12:33:47;25.20;81.10
7562;DHT22;3822;48.784;9.174;2022-08-19T12:36:16;25.30;81.10
7562;DHT22;3822;48.784;9.174;2022-08-19T12:38:43;25.30;81.20
7562;DHT22;3822;48.784;9.174;2022-08-19T12:41:13;25.40;81.30
7562;DHT22;3822;48.784;9.174;2022-08-19T12:43:44;25.40;81.30
7562;DHT22;3822;48.784;9.174;2022-08-19T12:46:11;25.40;81.60
7562;DHT22;3822;48.784;9.174;2022-08-19T12:48:38;25.50;81.40
7562;DHT22;3822;48.784;9.174;2022-08-19T12:51:10;25.50;81.40
7562;DHT22;3822;48.784;9.174;2022-08-19T12:53:38;25.50;81.20
7562;DHT22;3822;48.784;9.174;2022-08-19T12:56:07;25.50;81.20
7562;DHT22;3822;48.784;9.174;2022-08-19T12:58:34;25.60;81.20
7562;DHT22;3822;48.784;9.174;2022-08-19T13:01:27;25.60;81.00
7562;DHT22;3822;48.784;9.174;2022-08-19T13:03:56;25.60;80.90
7562;DHT22;3822;48.784;9.174;2022-08-19T13:06:22;25.60;80.80
7562;DHT22;3822;48.784;9.174;2022-08-19T13:08:49;25.60;80.70
7562;DHT22;3822;48.784;9.174;2022-08-19T13:11:17;25.70;80.60
7562;DHT22;3822;48.784;9.174;2022-08-19T13:13:47;25.70;80.70
7562;DHT22;3822;48.784;9.174;2022-08-19T13:16:16;25.70;80.80
7562;DHT22;3822;48.784;9.174;2022-08-19T13:18:46;25.70;80.70
7562;DHT22;3822;48.784;9.174;2022-08-19T13:21:13;25.80;80.80
7562;DHT22;3822;48.784;9.174;2022-08-19T13:23:41;25.80;80.90
7562;DHT22;3822;48.784;9.174;2022-08-19T13:26:09;25.70;80.90
7562;DHT22;3822;48.784;9.174;2022-08-19T13:28:38;25.80;81.20
7562;DHT22;3822;48.784;9.174;2022-08-19T13:31:26;25.80;81.10
7562;DHT22;3822;48.784;9.174;2022-08-19T13:34:13;25.80;81.40
7562;DHT22;3822;48.784;9.174;2022-08-19T13:36:40;25.80;82.00
7562;DHT22;3822;48.784;9.174;2022-08-19T13:39:07;25.80;82.00
7562;DHT22;3822;48.784;9.174;2022-08-19T13:41:36;25.80;82.50
7562;DHT22;3822;48.784;9.174;2022-08-19T13:44:04;25.80;83.10
7562;DHT22;3822;48.784;9.174;2022-08-19T13:46:32;25.80;83.40
7562;DHT22;3822;48.784;9.174;2022-08-19T13:48:59;25.80;83.90
7562;DHT22;3822;48.784;9.174;2022-08-19T13:51:25;25.80;84.30
7562;DHT22;3822;48.784;9.174;2022-08-19T13:53:52;25.70;84.60
7562;DHT22;3822;48.784;9.174;2022-08-19T13:56:20;25.70;84.70
7562;DHT22;3822;48.784;9.174;2022-08-19T13:58:46;25.70;84.90
7562;DHT22;3822;48.784;9.174;2022-08-19T14:01:19;25.70;85.60
7562;DHT22;3822;48.784;9.174;2022-08-19T14:03:47;25.70;86.00
7562;DHT22;3822;48.784;9.174;2022-08-19T14:06:14;25.60;86.20
7562;DHT22;3822;48.784;9.174;2022-08-19T14:08:40;25.60;86.50
7562;DHT22;3822;48.784;9.174;2022-08-19T14:11:08;25.50;86.80
7562;DHT22;3822;48.784;9.174;2022-08-19T14:13:35;25.50;87.10
7562;DHT22;3822;48.784;9.174;2022-08-19T14:16:09;25.40;88.40
7562;DHT22;3822;48.784;9.174;2022-08-19T14:18:37;25.40;88.10
7562;DHT22;3822;48.784;9.174;2022-08-19T14:21:06;25.30;88.20
7562;DHT22;3822;48.784;9.174;2022-08-19T14:23:33;25.30;88.50
7562;DHT22;3822;48.784;9.174;2022-08-19T14:26:11;25.20;88.80
7562;DHT22;3822;48.784;9.174;2022-08-19T14:28:40;25.20;89.30
7562;DHT22;3822;48.784;9.174;2022-08-19T14:31:15;25.10;89.60
7562;DHT22;3822;48.784;9.174;2022-08-19T14:33:48;25.10;89.90
7562;DHT22;3822;48.784;9.174;2022-08-19T14:36:18;25.00;90.00
7562;DHT22;3822;48.784;9.174;2022-08-19T14:38:45;25.00;90.00
7562;DHT22;3822;48.784;9.174;2022-08-19T14:41:20;24.90;90.00
7562;DHT22;3822;48.784;9.174;2022-08-19T14:43:50;24.90;90.00
7562;DHT22;3822;48.784;9.174;2022-08-19T14:46:20;24.90;90.10
7562;DHT22;3822;48.784;9.174;2022-08-19T14:48:49;24.90;90.10
7562;DHT22;3822;48.784;9.174;2022-08-19T14:51:16;24.90;90.10
7562;DHT22;3822;48.784;9.174;2022-08-19T14:53:43;24.90;90.10
7562;DHT22;3822;48.784;9.174;2022-08-19T14:56:13;24.90;90.10
7562;DHT22;3822;48.784;9.174;2022-08-19T14:58:42;24.80;90.00
7562;DHT22;3822;48.784;9.174;2022-08-19T15:01:09;24.90;90.10
7562;DHT22;3822;48.784;9.174;2022-08-19T15:03:52;24.90;90.10
7562;DHT22;3822;48.784;9.174;2022-08-19T15:06:22;24.90;90.20
7562;DHT22;3822;48.784;9.174;2022-08-19T15:08:49;24.90;90.20
7562;DHT22;3822;48.784;9.174;2022-08-19T15:11:19;24.90;90.20
7562;DHT22;3822;48.784;9.174;2022-08-19T15:13:49;24.90;90.20
7562;DHT22;3822;48.784;9.174;2022-08-19T15:16:16;24.90;90.20
7562;DHT22;3822;48.784;9.174;2022-08-19T15:18:44;25.00;90.20
7562;DHT22;3822;48.784;9.174;2022-08-19T15:21:14;25.00;90.10
7562;DHT22;3822;48.784;9.174;2022-08-19T15:23:45;25.00;90.00
7562;DHT22;3822;48.784;9.174;2022-08-19T15:26:12;25.10;89.90
7562;DHT22;3822;48.784;9.174;2022-08-19T15:28:38;25.10;89.60
7562;DHT22;3822;48.784;9.174;2022-08-19T15:31:05;25.10;89.40
7562;DHT22;3822;48.784;9.174;2022-08-19T15:33:33;25.10;89.30
7562;DHT22;3822;48.784;9.174;2022-08-19T15:36:05;25.20;89.20
7562;DHT22;3822;48.784;9.174;2022-08-19T15:38:33;25.20;88.90
7562;DHT22;3822;48.784;9.174;2022-08-19T15:41:02;25.30;88.90
7562;DHT22;3822;48.784;9.174;2022-08-19T15:43:58;25.30;88.80
7562;DHT22;3822;48.784;9.174;2022-08-19T15:46:28;25.40;88.70
7562;DHT22;3822;48.784;9.174;2022-08-19T15:48:57;25.50;88.70
7562;DHT22;3822;48.784;9.174;2022-08-19T15:51:25;25.50;88.60
7562;DHT22;3822;48.784;9.174;2022-08-19T15:53:52;25.50;88.40
7562;DHT22;3822;48.784;9.174;2022-08-19T15:56:20;25.60;88.30
7562;DHT22;3822;48.784;9.174;2022-08-19T15:58:46;25.70;88.10
7562;DHT22;3822;48.784;9.174;2022-08-19T16:01:31;25.70;87.80
7562;DHT22;3822;48.784;9.174;2022-08-19T16:04:16;25.80;87.70
7562;DHT22;3822;48.784;9.174;2022-08-19T16:07:01;25.90;87.70
7562;DHT22;3822;48.784;9.174;2022-08-19T16:09:30;25.90;87.60
7562;DHT22;3822;48.784;9.174;2022-08-19T16:11:59;26.00;87.30
7562;DHT22;3822;48.784;9.174;2022-08-19T16:14:28;26.00;87.10
7562;DHT22;3822;48.784;9.174;2022-08-19T16:16:56;26.10;87.40
7562;DHT22;3822;48.784;9.174;2022-08-19T16:19:23;26.10;86.70
7562;DHT22;3822;48.784;9.174;2022-08-19T16:21:53;26.20;86.60
7562;DHT22;3822;48.784;9.174;2022-08-19T16:24:25;26.30;86.80
7562;DHT22;3822;48.784;9.174;2022-08-19T16:26:54;26.30;86.90
7562;DHT22;3822;48.784;9.174;2022-08-19T16:29:21;26.40;87.00
7562;DHT22;3822;48.784;9.174;2022-08-19T16:31:48;26.40;87.10
7562;DHT22;3822;48.784;9.174;2022-08-19T16:34:15;26.40;87.10
7562;DHT22;3822;48.784;9.174;2022-08-19T16:36:41;26.40;87.10